Time;durP1;ratioP1;P1;durP2;ratioP2;P2;SDS_P1;SDS_P2;PMS_P1;PMS_P2;Temp;Humidity;BMP_temperature;BMP_pressure;BME280_temperature;BME280_humidity;BME280_pressure;Samples;Min_cycle;Max_cycle;Signal;HPM_P1;HPM_P2
2022/07/19 00:02:00;;;;;;;11.88;6.78;;;;;;;;;;5034865;28;20025;-67
2022/07/19 00:04:25;;;;;;;15.77;7.65;;;;;;;;;;5030136;28;20101;-67
2022/07/19 00:06:51;;;;;;;16.75;7.28;;;;;;;;;;5035705;28;20781;-67
2022/07/19 00:09:16;;;;;;;12.88;6.97;;;;;;;;;;5034154;28;20400;-67
2022/07/19 00:11:41;;;;;;;9.55;6.00;;;;;;;;;;5035792;28;20076;-67
2022/07/19 00:14:06;;;;;;;10.45;6.07;;;;;;;;;;5034672;28;20033;-67
2022/07/19 00:16:32;;;;;;;13.77;7.07;;;;;;;;;;5035851;28;20147;-66
2022/07/19 00:18:57;;;;;;;15.45;7.30;;;;;;;;;;5038169;28;20040;-67
2022/07/19 00:21:22;;;;;;;12.07;7.07;;;;;;;;;;5037439;28;20122;-66
2022/07/19 00:23:48;;;;;;;12.38;7.32;;;;;;;;;;5032465;28;20029;-66
2022/07/19 00:26:13;;;;;;;13.68;7.18;;;;;;;;;;5042415;28;20059;-67
2022/07/19 00:28:38;;;;;;;12.70;7.00;;;;;;;;;;5036121;28;20377;-67
2022/07/19 00:31:04;;;;;;;12.38;6.63;;;;;;;;;;5036984;28;20407;-67
2022/07/19 00:33:29;;;;;;;11.43;7.03;;;;;;;;;;5039770;28;20492;-67
2022/07/19 00:35:54;;;;;;;17.13;7.47;;;;;;;;;;5032515;28;20022;-67
2022/07/19 00:38:20;;;;;;;11.97;6.73;;;;;;;;;;5033809;28;20022;-67
2022/07/19 00:40:45;;;;;;;12.53;7.10;;;;;;;;;;5033755;28;20078;-66
2022/07/19 00:43:11;;;;;;;16.37;7.13;;;;;;;;;;5035565;28;20018;-67
2022/07/19 00:45:36;;;;;;;12.53;6.90;;;;;;;;;;5036856;28;20017;-67
2022/07/19 00:48:02;;;;;;;16.37;6.63;;;;;;;;;;5035096;28;20021;-66
2022/07/19 00:50:28;;;;;;;13.27;7.20;;;;;;;;;;5035836;28;20107;-66
2022/07/19 00:52:55;;;;;;;16.33;8.33;;;;;;;;;;5037616;28;20454;-67
2022/07/19 00:55:21;;;;;;;12.40;7.13;;;;;;;;;;5035479;28;20048;-66
2022/07/19 00:57:47;;;;;;;16.55;6.85;;;;;;;;;;5034043;28;20018;-67
2022/07/19 01:00:13;;;;;;;13.52;6.82;;;;;;;;;;5035879;28;20022;-66
2022/07/19 01:02:38;;;;;;;13.13;7.43;;;;;;;;;;5037131;28;20484;-67
2022/07/19 01:05:04;;;;;;;15.73;7.15;;;;;;;;;;5037420;28;20025;-67
2022/07/19 01:07:29;;;;;;;14.90;7.22;;;;;;;;;;5034324;28;20021;-67
2022/07/19 01:09:55;;;;;;;13.57;7.13;;;;;;;;;;5043055;28;20484;-66
2022/07/19 01:12:22;;;;;;;15.00;8.18;;;;;;;;;;5034904;28;20104;-66
2022/07/19 01:14:47;;;;;;;16.08;7.63;;;;;;;;;;5036051;28;20033;-66
2022/07/19 01:17:13;;;;;;;13.43;7.77;;;;;;;;;;5032273;28;20164;-66
2022/07/19 01:19:38;;;;;;;10.23;6.70;;;;;;;;;;5027419;28;20068;-66
2022/07/19 01:22:03;;;;;;;15.87;7.73;;;;;;;;;;5037097;28;20052;-66
2022/07/19 01:24:28;;;;;;;15.37;7.27;;;;;;;;;;5035011;28;20036;-66
2022/07/19 01:26:54;;;;;;;14.23;7.78;;;;;;;;;;5036954;28;20028;-66
2022/07/19 01:29:19;;;;;;;14.37;7.40;;;;;;;;;;5033525;28;20049;-66
2022/07/19 01:31:44;;;;;;;13.67;6.90;;;;;;;;;;5036842;28;20024;-66
2022/07/19 01:34:10;;;;;;;15.97;7.83;;;;;;;;;;5035610;28;20068;-66
2022/07/19 01:36:35;;;;;;;12.27;7.07;;;;;;;;;;5035955;28;20037;-66
2022/07/19 01:39:00;;;;;;;12.43;7.37;;;;;;;;;;5041104;28;20017;-66
2022/07/19 01:41:25;;;;;;;11.70;7.50;;;;;;;;;;5035813;28;20025;-66
2022/07/19 01:43:51;;;;;;;12.87;7.20;;;;;;;;;;5034722;28;20079;-66
2022/07/19 01:46:16;;;;;;;18.90;7.63;;;;;;;;;;5036025;28;20055;-66
2022/07/19 01:48:41;;;;;;;13.53;7.67;;;;;;;;;;5032522;28;20022;-66
2022/07/19 01:51:06;;;;;;;15.40;8.50;;;;;;;;;;5034327;28;20038;-66
2022/07/19 01:53:31;;;;;;;14.30;7.87;;;;;;;;;;5031854;28;20112;-66
2022/07/19 01:55:57;;;;;;;14.00;8.80;;;;;;;;;;5034708;28;20052;-66
2022/07/19 01:58:22;;;;;;;17.57;8.33;;;;;;;;;;5036543;28;20098;-66
2022/07/19 02:00:47;;;;;;;12.60;7.80;;;;;;;;;;5035558;28;20021;-67
2022/07/19 02:03:13;;;;;;;13.90;7.90;;;;;;;;;;5033290;28;20098;-66
2022/07/19 02:05:38;;;;;;;11.97;7.43;;;;;;;;;;5031271;28;20492;-66
2022/07/19 02:08:03;;;;;;;12.27;7.60;;;;;;;;;;5030154;28;20071;-66
2022/07/19 02:10:29;;;;;;;14.60;7.33;;;;;;;;;;5034471;28;20521;-66
2022/07/19 02:12:54;;;;;;;17.00;7.70;;;;;;;;;;5030568;28;20025;-66
2022/07/19 02:15:19;;;;;;;15.23;7.93;;;;;;;;;;5033893;28;20110;-67
2022/07/19 02:17:44;;;;;;;15.03;8.47;;;;;;;;;;5033116;28;20450;-66
2022/07/19 02:20:10;;;;;;;15.30;8.43;;;;;;;;;;5030490;28;20033;-66
2022/07/19 02:22:35;;;;;;;13.67;8.33;;;;;;;;;;5029894;28;20378;-66
2022/07/19 02:25:01;;;;;;;17.03;8.80;;;;;;;;;;5035788;28;20021;-66
2022/07/19 02:27:28;;;;;;;16.63;8.97;;;;;;;;;;5034501;28;20120;-66
2022/07/19 02:29:53;;;;;;;16.33;9.27;;;;;;;;;;5031876;28;20389;-67
2022/07/19 02:32:18;;;;;;;15.90;8.07;;;;;;;;;;5029910;28;20036;-66
2022/07/19 02:34:44;;;;;;;13.87;8.20;;;;;;;;;;5033729;28;20134;-66
2022/07/19 02:37:09;;;;;;;14.13;7.40;;;;;;;;;;5033140;28;20449;-66
2022/07/19 02:39:34;;;;;;;14.10;8.30;;;;;;;;;;5036886;28;20021;-67
2022/07/19 02:42:00;;;;;;;15.80;7.97;;;;;;;;;;5032056;28;20033;-66
2022/07/19 02:44:25;;;;;;;14.83;7.80;;;;;;;;;;5032792;28;20021;-66
2022/07/19 02:46:50;;;;;;;14.87;7.90;;;;;;;;;;5034870;28;20044;-66
2022/07/19 02:49:15;;;;;;;16.30;8.50;;;;;;;;;;5030343;28;20061;-66
2022/07/19 02:51:41;;;;;;;16.27;9.27;;;;;;;;;;5033918;28;20040;-67
2022/07/19 02:54:06;;;;;;;17.10;9.33;;;;;;;;;;5030467;28;20025;-67
2022/07/19 02:56:31;;;;;;;18.20;9.90;;;;;;;;;;5031385;28;20473;-66
2022/07/19 02:58:56;;;;;;;15.83;9.37;;;;;;;;;;5032168;28;20609;-67
2022/07/19 03:01:22;;;;;;;20.83;10.00;;;;;;;;;;5032908;28;20017;-66
2022/07/19 03:03:47;;;;;;;19.37;8.53;;;;;;;;;;5034388;28;20347;-67
2022/07/19 03:06:13;;;;;;;24.97;8.83;;;;;;;;;;5030533;28;20522;-66
2022/07/19 03:08:39;;;;;;;17.27;8.67;;;;;;;;;;5029167;28;20033;-66
2022/07/19 03:11:04;;;;;;;14.00;8.17;;;;;;;;;;5031895;28;20391;-66
2022/07/19 03:13:29;;;;;;;18.30;8.83;;;;;;;;;;5033338;28;20499;-66
2022/07/19 03:15:54;;;;;;;17.10;9.20;;;;;;;;;;5033758;28;20020;-66
2022/07/19 03:18:20;;;;;;;19.93;9.67;;;;;;;;;;5030595;28;20079;-67
2022/07/19 03:20:45;;;;;;;17.27;9.77;;;;;;;;;;5033969;28;20030;-67
2022/07/19 03:23:10;;;;;;;21.00;9.80;;;;;;;;;;5034043;28;20083;-66
2022/07/19 03:25:35;;;;;;;19.73;9.67;;;;;;;;;;5028265;28;20020;-66
2022/07/19 03:28:01;;;;;;;16.77;9.30;;;;;;;;;;5032877;28;20017;-67
2022/07/19 03:30:26;;;;;;;19.00;9.83;;;;;;;;;;5032536;28;20104;-67
2022/07/19 03:32:51;;;;;;;19.60;10.57;;;;;;;;;;5030815;28;20021;-67
2022/07/19 03:35:17;;;;;;;15.30;9.20;;;;;;;;;;5028660;28;20040;-66
2022/07/19 03:37:42;;;;;;;17.27;9.10;;;;;;;;;;5029932;28;20474;-66
2022/07/19 03:40:07;;;;;;;21.80;9.80;;;;;;;;;;5030193;28;20442;-67
2022/07/19 03:42:33;;;;;;;19.27;8.40;;;;;;;;;;5033389;28;20386;-67
2022/07/19 03:44:58;;;;;;;13.97;8.37;;;;;;;;;;5032851;28;20048;-67
2022/07/19 03:47:23;;;;;;;15.80;8.23;;;;;;;;;;5036521;28;20025;-67
2022/07/19 03:49:48;;;;;;;17.47;8.53;;;;;;;;;;5035090;28;20083;-66
2022/07/19 03:52:14;;;;;;;20.20;8.60;;;;;;;;;;5036401;28;20111;-66
2022/07/19 03:54:39;;;;;;;33.33;9.00;;;;;;;;;;5032788;28;20378;-66
2022/07/19 03:57:04;;;;;;;111.67;12.13;;;;;;;;;;5037914;28;20057;-67
2022/07/19 03:59:30;;;;;;;108.83;11.43;;;;;;;;;;5036720;28;21499;-66
2022/07/19 04:01:55;;;;;;;65.40;10.27;;;;;;;;;;5038027;28;20131;-66
2022/07/19 04:04:20;;;;;;;44.33;9.00;;;;;;;;;;5036418;28;20028;-66
2022/07/19 04:06:46;;;;;;;33.40;8.60;;;;;;;;;;5035658;28;20053;-67
2022/07/19 04:09:11;;;;;;;20.43;8.13;;;;;;;;;;5035665;28;20413;-66
2022/07/19 04:11:36;;;;;;;22.00;8.23;;;;;;;;;;5038617;28;20021;-66
2022/07/19 04:14:02;;;;;;;20.57;7.63;;;;;;;;;;5035729;28;20037;-66
2022/07/19 04:16:27;;;;;;;13.45;7.25;;;;;;;;;;5034478;28;20570;-67
2022/07/19 04:18:52;;;;;;;16.80;7.57;;;;;;;;;;5032849;28;20049;-67
2022/07/19 04:21:17;;;;;;;13.70;7.63;;;;;;;;;;5032152;28;20049;-67
2022/07/19 04:23:43;;;;;;;11.57;6.30;;;;;;;;;;5034534;28;20028;-67
2022/07/19 04:26:08;;;;;;;14.65;7.25;;;;;;;;;;5035332;28;20354;-67
2022/07/19 04:28:33;;;;;;;12.82;6.88;;;;;;;;;;5034615;28;20457;-67
2022/07/19 04:30:58;;;;;;;12.35;6.88;;;;;;;;;;5036200;28;20025;-67
2022/07/19 04:33:24;;;;;;;12.50;6.68;;;;;;;;;;5033155;28;20025;-67
2022/07/19 04:35:49;;;;;;;16.65;7.28;;;;;;;;;;5032656;28;20037;-67
2022/07/19 04:38:14;;;;;;;15.70;7.65;;;;;;;;;;5032573;28;20097;-67
2022/07/19 04:40:40;;;;;;;13.57;7.32;;;;;;;;;;5036403;28;20025;-67
2022/07/19 04:43:05;;;;;;;12.25;6.68;;;;;;;;;;5031999;28;20398;-67
2022/07/19 04:45:30;;;;;;;11.70;6.28;;;;;;;;;;5034022;28;20029;-68
2022/07/19 04:47:56;;;;;;;15.68;6.75;;;;;;;;;;5033341;28;20120;-68
2022/07/19 04:50:21;;;;;;;13.60;7.90;;;;;;;;;;5034669;28;20163;-67
2022/07/19 04:52:46;;;;;;;13.70;6.80;;;;;;;;;;5031860;28;20038;-68
2022/07/19 04:55:12;;;;;;;10.18;6.40;;;;;;;;;;5032749;28;20032;-67
2022/07/19 04:57:37;;;;;;;14.23;6.78;;;;;;;;;;5032624;28;20017;-67
2022/07/19 05:00:08;;;;;;;15.77;6.97;;;;;;;;;;5032728;28;20029;-67
2022/07/19 05:02:34;;;;;;;17.52;7.00;;;;;;;;;;5034788;28;20028;-67
2022/07/19 05:04:59;;;;;;;15.18;9.15;;;;;;;;;;5032033;28;20029;-67
2022/07/19 05:07:24;;;;;;;17.42;8.40;;;;;;;;;;5033201;28;20097;-67
2022/07/19 05:09:49;;;;;;;13.02;6.20;;;;;;;;;;5032526;28;20061;-67
2022/07/19 05:12:15;;;;;;;14.88;6.47;;;;;;;;;;5032922;28;20053;-67
2022/07/19 05:14:40;;;;;;;14.23;7.00;;;;;;;;;;5031617;28;20107;-67
2022/07/19 05:17:05;;;;;;;22.90;7.82;;;;;;;;;;5034706;28;20024;-67
2022/07/19 05:19:31;;;;;;;15.13;7.20;;;;;;;;;;5033202;28;20112;-67
2022/07/19 05:21:56;;;;;;;16.08;7.50;;;;;;;;;;5032913;28;20053;-67
2022/07/19 05:24:21;;;;;;;14.15;6.85;;;;;;;;;;5032723;28;20444;-67
2022/07/19 05:26:46;;;;;;;13.45;7.88;;;;;;;;;;5032920;28;20060;-67
2022/07/19 05:29:12;;;;;;;13.60;7.13;;;;;;;;;;5032485;28;20033;-67
2022/07/19 05:31:37;;;;;;;14.75;6.45;;;;;;;;;;5031523;28;20025;-67
2022/07/19 05:34:02;;;;;;;12.93;6.65;;;;;;;;;;5032365;28;20364;-67
2022/07/19 05:36:27;;;;;;;12.70;7.18;;;;;;;;;;5033083;28;20031;-67
2022/07/19 05:38:53;;;;;;;11.55;6.97;;;;;;;;;;5032399;28;20048;-66
2022/07/19 05:41:21;;;;;;;18.58;7.10;;;;;;;;;;5032734;28;20014;-67
2022/07/19 05:43:46;;;;;;;12.07;6.38;;;;;;;;;;5032461;28;20033;-67
2022/07/19 05:46:12;;;;;;;14.23;6.70;;;;;;;;;;5032398;28;20026;-67
2022/07/19 05:48:37;;;;;;;11.73;6.82;;;;;;;;;;5032340;28;20025;-67
2022/07/19 05:51:02;;;;;;;10.60;6.20;;;;;;;;;;5032591;28;20029;-67
2022/07/19 05:53:27;;;;;;;15.25;6.45;;;;;;;;;;5031989;28;20030;-67
2022/07/19 05:55:53;;;;;;;16.42;6.63;;;;;;;;;;5031106;28;20026;-67
2022/07/19 05:58:18;;;;;;;11.02;5.90;;;;;;;;;;5031929;28;20030;-67
2022/07/19 06:03:30;;;;;;;13.48;6.00;;;;;;;;;;5030990;28;20037;-67
2022/07/19 06:05:55;;;;;;;14.40;5.93;;;;;;;;;;5032124;28;20413;-67
2022/07/19 06:08:21;;;;;;;12.70;5.80;;;;;;;;;;5032179;28;20032;-67
2022/07/19 06:10:46;;;;;;;11.80;5.90;;;;;;;;;;5032227;28;20031;-67
2022/07/19 06:13:11;;;;;;;15.88;6.35;;;;;;;;;;5031911;28;20099;-67
2022/07/19 06:15:36;;;;;;;12.70;6.32;;;;;;;;;;5032010;28;20025;-67
2022/07/19 06:18:02;;;;;;;14.77;6.22;;;;;;;;;;5031636;28;20040;-67
2022/07/19 06:20:27;;;;;;;11.18;6.13;;;;;;;;;;5032025;28;20113;-67
2022/07/19 06:22:52;;;;;;;14.18;5.93;;;;;;;;;;5031707;28;20030;-67
2022/07/19 06:25:17;;;;;;;11.63;5.57;;;;;;;;;;5031343;28;20030;-67
2022/07/19 06:27:42;;;;;;;19.85;6.55;;;;;;;;;;5031499;28;20029;-67
2022/07/19 06:30:08;;;;;;;13.00;5.90;;;;;;;;;;5031659;28;20115;-67
2022/07/19 06:32:33;;;;;;;10.38;4.90;;;;;;;;;;5031864;28;20037;-67
2022/07/19 06:34:58;;;;;;;11.85;4.90;;;;;;;;;;5028303;28;20025;-67
2022/07/19 06:37:24;;;;;;;12.95;4.60;;;;;;;;;;5031246;28;20017;-67
2022/07/19 06:39:49;;;;;;;8.25;4.10;;;;;;;;;;5031922;28;20017;-68
2022/07/19 06:42:14;;;;;;;8.30;4.30;;;;;;;;;;5031161;28;20021;-67
2022/07/19 06:44:40;;;;;;;9.98;4.43;;;;;;;;;;5031778;28;20123;-67
2022/07/19 06:47:05;;;;;;;7.50;4.10;;;;;;;;;;5031335;28;20373;-66
2022/07/19 06:49:30;;;;;;;7.15;3.80;;;;;;;;;;5031464;28;20430;-66
2022/07/19 06:51:55;;;;;;;11.00;3.97;;;;;;;;;;5031581;28;20402;-66
2022/07/19 06:54:21;;;;;;;8.68;3.90;;;;;;;;;;5031187;28;20453;-67
2022/07/19 06:56:46;;;;;;;7.28;3.60;;;;;;;;;;5031553;28;20083;-67
2022/07/19 06:59:11;;;;;;;7.47;3.50;;;;;;;;;;5031035;28;20017;-67
2022/07/19 07:01:36;;;;;;;8.55;3.47;;;;;;;;;;5031340;28;20076;-67
2022/07/19 07:04:02;;;;;;;8.80;3.15;;;;;;;;;;5030904;28;20029;-67
2022/07/19 07:06:27;;;;;;;7.45;3.22;;;;;;;;;;5031308;28;20087;-67
2022/07/19 07:08:52;;;;;;;8.55;2.95;;;;;;;;;;5030716;28;20110;-67
2022/07/19 07:11:17;;;;;;;7.68;3.20;;;;;;;;;;5031553;28;20022;-67
2022/07/19 07:13:43;;;;;;;12.90;3.50;;;;;;;;;;5030784;28;20091;-67
2022/07/19 07:16:08;;;;;;;7.78;3.10;;;;;;;;;;5031076;28;20434;-67
2022/07/19 07:18:33;;;;;;;7.68;3.10;;;;;;;;;;5029859;28;20044;-66
2022/07/19 07:20:59;;;;;;;6.72;2.70;;;;;;;;;;5031066;28;20010;-66
2022/07/19 07:23:24;;;;;;;6.13;2.63;;;;;;;;;;5030971;28;20048;-67
2022/07/19 07:25:50;;;;;;;7.13;2.75;;;;;;;;;;5031197;28;20018;-66
2022/07/19 07:28:15;;;;;;;6.90;2.63;;;;;;;;;;5030691;28;20017;-67
2022/07/19 07:30:40;;;;;;;5.07;2.60;;;;;;;;;;5031255;28;20021;-66
2022/07/19 07:33:06;;;;;;;5.40;2.70;;;;;;;;;;5030714;28;20022;-67
2022/07/19 07:35:31;;;;;;;4.80;2.67;;;;;;;;;;5030803;28;20358;-66
2022/07/19 07:37:56;;;;;;;6.00;2.60;;;;;;;;;;5030247;28;20091;-66
2022/07/19 07:40:22;;;;;;;6.15;2.70;;;;;;;;;;5030816;28;20641;-66
2022/07/19 07:42:47;;;;;;;5.53;2.60;;;;;;;;;;5030618;28;20478;-67
2022/07/19 07:45:14;;;;;;;6.25;2.60;;;;;;;;;;5031009;28;20025;-66
2022/07/19 07:47:39;;;;;;;8.60;2.58;;;;;;;;;;5030470;28;20075;-67
2022/07/19 07:50:06;;;;;;;7.72;2.72;;;;;;;;;;5030658;28;20029;-67
2022/07/19 07:52:31;;;;;;;6.03;2.40;;;;;;;;;;5030423;28;20034;-66
2022/07/19 07:54:56;;;;;;;4.53;2.10;;;;;;;;;;5030561;28;20033;-67
2022/07/19 07:57:22;;;;;;;5.45;2.22;;;;;;;;;;5030704;28;20613;-66
2022/07/19 07:59:47;;;;;;;9.63;2.33;;;;;;;;;;5031077;28;20117;-67
2022/07/19 08:02:12;;;;;;;5.70;2.00;;;;;;;;;;5030515;28;20013;-67
2022/07/19 08:04:37;;;;;;;6.10;2.08;;;;;;;;;;5030595;28;20026;-67
2022/07/19 08:07:02;;;;;;;6.20;2.03;;;;;;;;;;5030580;28;20026;-67
2022/07/19 08:09:28;;;;;;;5.87;2.20;;;;;;;;;;5029962;28;20049;-67
2022/07/19 08:11:53;;;;;;;10.00;2.53;;;;;;;;;;5030576;28;20260;-67
2022/07/19 08:14:18;;;;;;;3.85;1.90;;;;;;;;;;5030415;28;20114;-67
2022/07/19 08:16:43;;;;;;;6.43;2.03;;;;;;;;;;5028344;28;20021;-66
2022/07/19 08:19:09;;;;;;;6.75;2.40;;;;;;;;;;5029963;28;20268;-67
2022/07/19 08:21:34;;;;;;;7.97;1.95;;;;;;;;;;5030405;28;20017;-67
2022/07/19 08:23:59;;;;;;;9.95;2.03;;;;;;;;;;5030427;28;20045;-67
2022/07/19 08:26:25;;;;;;;5.83;1.83;;;;;;;;;;5030820;28;20373;-66
2022/07/19 08:28:50;;;;;;;5.90;1.98;;;;;;;;;;5030611;28;20761;-67
2022/07/19 08:31:15;;;;;;;10.27;2.25;;;;;;;;;;5034297;28;20025;-67
2022/07/19 08:33:41;;;;;;;5.38;2.20;;;;;;;;;;5033347;28;20029;-67
2022/07/19 08:36:06;;;;;;;6.85;2.00;;;;;;;;;;5034101;28;20087;-66
2022/07/19 08:38:32;;;;;;;5.95;2.05;;;;;;;;;;5032343;28;20389;-66
2022/07/19 08:40:59;;;;;;;7.00;1.90;;;;;;;;;;5033130;28;20018;-66
2022/07/19 08:43:25;;;;;;;3.97;1.73;;;;;;;;;;5033320;28;20017;-67
2022/07/19 08:45:51;;;;;;;4.57;1.70;;;;;;;;;;5033393;28;20014;-67
2022/07/19 08:48:17;;;;;;;4.78;1.80;;;;;;;;;;5033230;28;20090;-67
2022/07/19 08:50:44;;;;;;;5.40;1.88;;;;;;;;;;5033887;28;20114;-66
2022/07/19 08:53:09;;;;;;;5.55;1.60;;;;;;;;;;5033044;28;20044;-67
2022/07/19 08:55:34;;;;;;;6.47;1.63;;;;;;;;;;5033609;28;20025;-67
2022/07/19 08:58:02;;;;;;;11.60;2.10;;;;;;;;;;5033189;28;20033;-66
2022/07/19 09:00:31;;;;;;;3.15;1.42;;;;;;;;;;5033684;28;20267;-67
2022/07/19 09:03:07;;;;;;;6.95;1.83;;;;;;;;;;5033040;28;20022;-67
2022/07/19 09:05:33;;;;;;;7.38;1.80;;;;;;;;;;5033478;28;20041;-66
2022/07/19 09:08:18;;;;;;;6.20;1.60;;;;;;;;;;5032954;28;20021;-67
2022/07/19 09:11:14;;;;;;;3.10;1.48;;;;;;;;;;5033252;28;20033;-66
2022/07/19 09:13:30;;;;;;;4.53;1.48;;;;;;;;;;5032722;28;20033;-66
2022/07/19 09:15:55;;;;;;;3.37;1.40;;;;;;;;;;5032963;28;20020;-67
2022/07/19 09:18:22;;;;;;;3.15;1.30;;;;;;;;;;5032772;28;20335;-67
2022/07/19 09:20:49;;;;;;;3.60;1.30;;;;;;;;;;5033056;28;20026;-67
2022/07/19 09:23:15;;;;;;;9.82;1.60;;;;;;;;;;5032174;28;20025;-67
2022/07/19 09:25:40;;;;;;;3.17;1.48;;;;;;;;;;5033304;28;20028;-67
2022/07/19 09:28:06;;;;;;;6.22;1.50;;;;;;;;;;5032637;28;20386;-67
2022/07/19 09:30:39;;;;;;;4.63;1.65;;;;;;;;;;5032263;28;20087;-67
2022/07/19 09:33:06;;;;;;;4.28;1.58;;;;;;;;;;5032325;28;20112;-67
2022/07/19 09:35:41;;;;;;;5.55;1.50;;;;;;;;;;5032730;28;20032;-67
2022/07/19 09:38:33;;;;;;;5.00;1.40;;;;;;;;;;5032752;28;20029;-67
2022/07/19 09:41:17;;;;;;;5.55;1.60;;;;;;;;;;5031803;28;20056;-66
2022/07/19 09:43:56;;;;;;;3.33;1.42;;;;;;;;;;5032636;28;20047;-67
2022/07/19 09:46:28;;;;;;;4.53;1.60;;;;;;;;;;5032787;28;20029;-67
2022/07/19 09:48:53;;;;;;;14.60;1.60;;;;;;;;;;5031977;28;20056;-67
2022/07/19 09:51:19;;;;;;;6.70;1.60;;;;;;;;;;5032732;28;20104;-67
2022/07/19 09:53:44;;;;;;;9.07;1.80;;;;;;;;;;5032306;28;20284;-66
2022/07/19 09:56:10;;;;;;;4.80;1.50;;;;;;;;;;5032619;28;20025;-66
2022/07/19 09:58:36;;;;;;;6.15;1.40;;;;;;;;;;5032074;28;20021;-66
2022/07/19 10:01:01;;;;;;;6.78;1.85;;;;;;;;;;5031012;28;20060;-67
2022/07/19 10:03:26;;;;;;;5.53;1.30;;;;;;;;;;5030371;28;20542;-67
2022/07/19 10:05:54;;;;;;;5.40;1.27;;;;;;;;;;5032547;28;20257;-67
2022/07/19 10:08:19;;;;;;;6.38;1.40;;;;;;;;;;5035829;28;20481;-67
2022/07/19 10:10:45;;;;;;;4.55;1.25;;;;;;;;;;5031545;28;20066;-67
2022/07/19 10:13:10;;;;;;;3.85;1.33;;;;;;;;;;5032077;28;20028;-67
2022/07/19 10:15:39;;;;;;;4.78;1.20;;;;;;;;;;5032200;28;20026;-67
2022/07/19 10:18:10;;;;;;;4.07;1.33;;;;;;;;;;5032041;28;20048;-66
2022/07/19 10:20:36;;;;;;;3.17;1.10;;;;;;;;;;5032218;28;20022;-67
2022/07/19 10:23:02;;;;;;;4.78;1.20;;;;;;;;;;5031873;28;20391;-68
2022/07/19 10:25:39;;;;;;;8.82;1.50;;;;;;;;;;5031849;28;20474;-66
2022/07/19 10:28:05;;;;;;;6.13;1.45;;;;;;;;;;5031420;28;20028;-67
2022/07/19 10:30:38;;;;;;;4.50;1.17;;;;;;;;;;5032212;28;20021;-67
2022/07/19 10:33:23;;;;;;;4.97;0.98;;;;;;;;;;5031124;28;20029;-67
2022/07/19 10:35:48;;;;;;;3.63;1.08;;;;;;;;;;5031296;28;20052;-67
2022/07/19 10:38:13;;;;;;;3.33;1.20;;;;;;;;;;5031561;28;20025;-67
2022/07/19 10:40:40;;;;;;;6.67;1.13;;;;;;;;;;5031557;28;20252;-67
2022/07/19 10:43:06;;;;;;;4.43;1.10;;;;;;;;;;5029804;28;20279;-67
2022/07/19 10:45:31;;;;;;;2.65;1.17;;;;;;;;;;5031726;28;20017;-67
2022/07/19 10:48:01;;;;;;;3.15;1.00;;;;;;;;;;5031314;28;20018;-67
2022/07/19 10:50:41;;;;;;;4.03;1.08;;;;;;;;;;5012100;28;20033;-67
2022/07/19 10:53:06;;;;;;;4.38;1.30;;;;;;;;;;5026403;28;20140;-67
2022/07/19 10:55:31;;;;;;;3.77;1.13;;;;;;;;;;5035075;28;20109;-67
2022/07/19 10:58:06;;;;;;;6.40;1.30;;;;;;;;;;5030968;28;20053;-67
2022/07/19 11:00:32;;;;;;;3.58;1.20;;;;;;;;;;5031570;28;20352;-67
2022/07/19 11:03:16;;;;;;;4.07;1.08;;;;;;;;;;5030996;28;20048;-67
2022/07/19 11:05:45;;;;;;;4.18;1.10;;;;;;;;;;5031374;28;20473;-67
2022/07/19 11:08:11;;;;;;;4.07;1.00;;;;;;;;;;5031115;28;20378;-67
2022/07/19 11:10:36;;;;;;;6.38;1.63;;;;;;;;;;5031265;28;20033;-67
2022/07/19 11:13:01;;;;;;;4.53;1.30;;;;;;;;;;5030924;28;20075;-67
2022/07/19 11:15:27;;;;;;;4.27;1.10;;;;;;;;;;5030974;28;20116;-67
2022/07/19 11:17:57;;;;;;;5.28;1.20;;;;;;;;;;5030396;28;20033;-67
2022/07/19 11:20:23;;;;;;;3.33;1.05;;;;;;;;;;5032613;28;20021;-67
2022/07/19 11:22:49;;;;;;;4.63;1.10;;;;;;;;;;5031021;28;20048;-67
2022/07/19 11:25:15;;;;;;;5.25;1.20;;;;;;;;;;5031343;28;20487;-67
2022/07/19 11:27:43;;;;;;;4.20;1.20;;;;;;;;;;5034600;28;20025;-67
2022/07/19 11:30:09;;;;;;;7.25;1.20;;;;;;;;;;5039393;28;20043;-67
2022/07/19 11:32:34;;;;;;;3.85;1.10;;;;;;;;;;5035368;28;20049;-67
2022/07/19 11:35:05;;;;;;;6.47;0.90;;;;;;;;;;5032422;28;20509;-67
2022/07/19 11:37:32;;;;;;;6.55;0.98;;;;;;;;;;5032872;28;20279;-67
2022/07/19 11:39:58;;;;;;;5.13;1.02;;;;;;;;;;5031149;28;20396;-67
2022/07/19 11:42:30;;;;;;;4.20;1.20;;;;;;;;;;5030476;28;20104;-67
2022/07/19 11:44:55;;;;;;;2.65;0.88;;;;;;;;;;5031045;28;20021;-67
2022/07/19 11:47:21;;;;;;;5.03;1.10;;;;;;;;;;5030498;28;20661;-67
2022/07/19 11:49:46;;;;;;;4.38;0.85;;;;;;;;;;5030775;28;20256;-67
2022/07/19 11:52:11;;;;;;;5.78;1.20;;;;;;;;;;5030434;28;20029;-67
2022/07/19 11:54:38;;;;;;;4.37;1.10;;;;;;;;;;5030722;28;20034;-67
2022/07/19 11:57:03;;;;;;;5.30;1.00;;;;;;;;;;5030949;28;20328;-67
2022/07/19 11:59:28;;;;;;;3.90;0.98;;;;;;;;;;5030698;28;20093;-67
2022/07/19 12:01:54;;;;;;;4.13;1.10;;;;;;;;;;5030557;28;20658;-67
2022/07/19 12:04:20;;;;;;;4.45;1.08;;;;;;;;;;5032778;28;20349;-67
2022/07/19 12:06:47;;;;;;;4.65;1.00;;;;;;;;;;5034479;28;20029;-67
2022/07/19 12:09:13;;;;;;;6.03;0.90;;;;;;;;;;5034032;28;20490;-66
2022/07/19 12:11:51;;;;;;;3.22;0.90;;;;;;;;;;5034608;28;20034;-67
2022/07/19 12:14:29;;;;;;;3.00;1.15;;;;;;;;;;5033949;28;20492;-67
2022/07/19 12:17:09;;;;;;;4.13;0.90;;;;;;;;;;5033769;28;20098;-67
2022/07/19 12:19:35;;;;;;;3.50;0.90;;;;;;;;;;5034432;28;20381;-67
2022/07/19 12:22:00;;;;;;;5.30;0.97;;;;;;;;;;5034410;28;20028;-67
2022/07/19 12:24:27;;;;;;;5.57;0.90;;;;;;;;;;5033739;28;20026;-67
2022/07/19 12:26:55;;;;;;;13.18;1.27;;;;;;;;;;5034440;28;20573;-67
2022/07/19 12:29:25;;;;;;;3.70;1.02;;;;;;;;;;5033354;28;20374;-67
2022/07/19 12:31:50;;;;;;;;;;;;;;;;;;5033966;28;20021;-67
2022/07/19 12:34:16;;;;;;;3.40;0.90;;;;;;;;;;5034551;28;19995;-67
2022/07/19 12:36:41;;;;;;;4.07;1.02;;;;;;;;;;5036906;28;20033;-67
2022/07/19 12:39:16;;;;;;;8.15;1.10;;;;;;;;;;5035865;28;20025;-67
2022/07/19 12:41:51;;;;;;;5.25;0.90;;;;;;;;;;5036046;28;20047;-67
2022/07/19 12:44:17;;;;;;;3.78;0.90;;;;;;;;;;5034937;28;20028;-67
2022/07/19 12:46:42;;;;;;;1.93;0.80;;;;;;;;;;5031374;28;20020;-66
2022/07/19 12:49:09;;;;;;;3.03;1.08;;;;;;;;;;5035906;28;20108;-67
2022/07/19 12:51:34;;;;;;;3.13;0.90;;;;;;;;;;5042738;28;20025;-67
2022/07/19 12:54:00;;;;;;;10.37;1.20;;;;;;;;;;5032455;28;20036;-67
2022/07/19 12:56:25;;;;;;;5.13;1.10;;;;;;;;;;5037655;28;20370;-67
2022/07/19 13:01:34;;;;;;;3.50;1.10;;;;;;;;;;5039870;28;20071;-66
2022/07/19 13:03:59;;;;;;;5.60;1.03;;;;;;;;;;5033387;28;20033;-66
2022/07/19 13:06:24;;;;;;;3.90;1.13;;;;;;;;;;5035605;28;20026;-66
2022/07/19 13:08:50;;;;;;;4.40;1.20;;;;;;;;;;5032491;28;20018;-66
2022/07/19 13:11:16;;;;;;;4.77;1.20;;;;;;;;;;5032633;28;20295;-66
2022/07/19 13:13:41;;;;;;;8.18;1.70;;;;;;;;;;5035135;28;20295;-66
2022/07/19 13:16:07;;;;;;;2.83;1.13;;;;;;;;;;5031768;28;20474;-66
2022/07/19 13:18:32;;;;;;;3.35;1.20;;;;;;;;;;5035279;28;20123;-66
2022/07/19 13:20:57;;;;;;;3.57;1.07;;;;;;;;;;5032688;28;20032;-66
2022/07/19 13:23:22;;;;;;;3.40;1.13;;;;;;;;;;5031838;28;20275;-66
2022/07/19 13:25:48;;;;;;;5.03;1.30;;;;;;;;;;5032405;28;20022;-66
2022/07/19 13:28:13;;;;;;;5.77;1.30;;;;;;;;;;5032710;28;20268;-66
2022/07/19 13:30:38;;;;;;;5.07;1.23;;;;;;;;;;5030909;28;20036;-66
2022/07/19 13:33:03;;;;;;;3.40;1.20;;;;;;;;;;5030899;28;20029;-66
2022/07/19 13:35:30;;;;;;;3.63;1.30;;;;;;;;;;5035328;28;20380;-66
2022/07/19 13:37:55;;;;;;;3.83;1.15;;;;;;;;;;5031573;28;20025;-66
2022/07/19 13:40:21;;;;;;;6.68;1.10;;;;;;;;;;5031092;28;20024;-66
2022/07/19 13:42:46;;;;;;;8.63;1.20;;;;;;;;;;5032209;28;20025;-66
2022/07/19 13:45:11;;;;;;;3.57;1.30;;;;;;;;;;5031115;28;20033;-66
2022/07/19 13:47:38;;;;;;;4.43;1.37;;;;;;;;;;5028360;28;20307;-67
2022/07/19 13:50:04;;;;;;;2.55;1.10;;;;;;;;;;5033587;28;20307;-67
2022/07/19 13:52:29;;;;;;;3.20;1.30;;;;;;;;;;5031377;28;20088;-66
2022/07/19 13:54:54;;;;;;;3.97;1.20;;;;;;;;;;5031676;28;20049;-67
2022/07/19 13:57:19;;;;;;;5.33;1.43;;;;;;;;;;5030938;28;20440;-67
2022/07/19 13:59:45;;;;;;;3.43;1.33;;;;;;;;;;5031844;28;20350;-66
2022/07/19 14:02:11;;;;;;;5.03;1.47;;;;;;;;;;5031085;28;20087;-66
2022/07/19 14:04:37;;;;;;;4.60;1.20;;;;;;;;;;5026655;28;20363;-67
2022/07/19 14:07:02;;;;;;;8.18;1.17;;;;;;;;;;5031021;28;20446;-66
2022/07/19 14:09:27;;;;;;;5.72;1.20;;;;;;;;;;5028734;28;20029;-67
2022/07/19 14:11:53;;;;;;;4.20;1.10;;;;;;;;;;5028208;28;20036;-67
2022/07/19 14:14:18;;;;;;;5.80;1.42;;;;;;;;;;5032618;28;20024;-67
2022/07/19 14:16:45;;;;;;;5.20;1.17;;;;;;;;;;5026746;28;20443;-67
2022/07/19 14:19:11;;;;;;;3.38;1.10;;;;;;;;;;5021950;28;20102;-67
2022/07/19 14:21:36;;;;;;;7.13;1.40;;;;;;;;;;5028475;28;20540;-67
2022/07/19 14:24:02;;;;;;;6.53;1.25;;;;;;;;;;5032488;28;20470;-67
2022/07/19 14:26:27;;;;;;;5.70;1.20;;;;;;;;;;5033909;28;20087;-66
2022/07/19 14:28:52;;;;;;;4.53;1.20;;;;;;;;;;5028783;28;20028;-66
2022/07/19 14:31:18;;;;;;;5.60;1.20;;;;;;;;;;5033104;28;20392;-67
2022/07/19 14:33:43;;;;;;;5.10;1.23;;;;;;;;;;5031950;28;20485;-67
2022/07/19 14:36:08;;;;;;;4.28;1.20;;;;;;;;;;5034195;28;20349;-67